Time;durP1;ratioP1;P1;durP2;ratioP2;P2;SDS_P1;SDS_P2;PMS_P1;PMS_P2;Temp;Humidity;BMP_temperature;BMP_pressure;BME280_temperature;BME280_humidity;BME280_pressure;Samples;Min_cycle;Max_cycle;Signal;HPM_P1;HPM_P2
2023/01/28 00:01:12;;;;;;;;;;;;;;;15.79;47.62;100001.84;4959532;28;1150;-42
2023/01/28 00:03:38;;;;;;;;;;;;;;;15.56;46.96;99996.81;4959289;28;1188;-46
2023/01/28 00:06:21;;;;;;;;;;;;;;;15.36;46.57;99997.78;4964268;28;848;-47
2023/01/28 00:08:47;;;;;;;;;;;;;;;16.32;46.53;99998.34;4959296;28;1197;-41
2023/01/28 00:11:12;;;;;;;;;;;;;;;15.61;47.62;100008.84;4959034;28;1042;-42
2023/01/28 00:13:38;;;;;;;;;;;;;;;15.45;47.66;100010.88;4959043;28;1910;-46
2023/01/28 00:16:04;;;;;;;;;;;;;;;16.23;46.77;100001.72;4959296;28;1063;-45
2023/01/28 00:18:30;;;;;;;;;;;;;;;15.68;47.93;100006.56;4970352;28;1192;-45
2023/01/28 00:20:59;;;;;;;;;;;;;;;17.48;45.01;100003.78;4959275;28;1145;-46
2023/01/28 00:23:26;;;;;;;;;;;;;;;16.28;47.37;100000.03;4958948;28;1134;-46
2023/01/28 00:25:51;;;;;;;;;;;;;;;15.87;47.48;100001.25;4959338;28;1204;-42
2023/01/28 00:28:17;;;;;;;;;;;;;;;16.79;46.46;100017.84;4958659;28;1133;-47
2023/01/28 00:30:42;;;;;;;;;;;;;;;15.87;47.82;100012.22;4964373;28;835;-43
2023/01/28 00:33:07;;;;;;;;;;;;;;;15.92;47.56;100014.91;4958577;28;1875;-42
2023/01/28 00:35:33;;;;;;;;;;;;;;;16.15;47.34;100020.75;4958862;28;1041;-47
2023/01/28 00:37:59;;;;;;;;;;;;;;;15.63;47.39;100010.19;4958832;28;1201;-41
2023/01/28 00:40:26;;;;;;;;;;;;;;;15.51;46.73;100017.94;4958255;28;1204;-45
2023/01/28 00:42:53;;;;;;;;;;;;;;;16.23;47.11;100025.63;4971080;28;1185;-44
2023/01/28 00:45:19;;;;;;;;;;;;;;;15.83;47.41;100016.63;4958587;28;1137;-42
2023/01/28 00:47:47;;;;;;;;;;;;;;;15.48;47.38;100024.00;4958747;28;1029;-45
2023/01/28 00:50:12;;;;;;;;;;;;;;;15.53;47.40;100018.50;4958498;28;1047;-45
2023/01/28 00:52:38;;;;;;;;;;;;;;;15.81;47.50;100025.16;4958710;28;1110;-44
2023/01/28 00:55:03;;;;;;;;;;;;;;;16.07;47.22;100023.03;4965597;28;1973;-44
2023/01/28 00:57:29;;;;;;;;;;;;;;;17.65;44.68;100027.97;4941174;28;1223;-46
2023/01/28 00:59:54;;;;;;;;;;;;;;;16.25;47.04;100037.91;4941070;29;1101;-42
2023/01/28 01:02:20;;;;;;;;;;;;;;;15.76;47.16;100035.31;4958335;28;1089;-44
2023/01/28 01:04:57;;;;;;;;;;;;;;;15.56;46.76;100045.31;4940942;29;1165;-45
2023/01/28 01:07:31;;;;;;;;;;;;;;;15.48;46.91;100048.66;4942021;29;1246;-46
2023/01/28 01:10:02;;;;;;;;;;;;;;;16.06;47.42;100046.06;4958093;28;1097;-43
2023/01/28 01:12:27;;;;;;;;;;;;;;;15.51;47.24;100048.09;4941182;29;1110;-43
2023/01/28 01:14:53;;;;;;;;;;;;;;;17.25;45.59;100040.09;4958025;28;1985;-46
2023/01/28 01:17:20;;;;;;;;;;;;;;;16.05;47.42;100040.88;4959863;28;1225;-41
2023/01/28 01:19:45;;;;;;;;;;;;;;;15.64;47.38;100055.69;4963840;28;1215;-43
2023/01/28 01:22:10;;;;;;;;;;;;;;;16.19;47.58;100052.78;4958459;28;1150;-45
2023/01/28 01:24:36;;;;;;;;;;;;;;;16.23;47.63;100059.34;4941055;28;1518;-44
2023/01/28 01:27:01;;;;;;;;;;;;;;;15.73;47.29;100062.19;4958264;28;1074;-43
2023/01/28 01:29:28;;;;;;;;;;;;;;;15.89;47.85;100060.19;4941934;28;1376;-46
2023/01/28 01:31:54;;;;;;;;;;;;;;;16.32;47.26;100062.25;4958185;28;1089;-46
2023/01/28 01:34:19;;;;;;;;;;;;;;;15.70;47.69;100061.94;4958016;28;1910;-44
2023/01/28 01:36:47;;;;;;;;;;;;;;;16.65;46.79;100064.41;4958211;28;1153;-46
2023/01/28 01:39:13;;;;;;;;;;;;;;;15.89;47.52;100073.91;4957461;28;1515;-42
2023/01/28 01:41:39;;;;;;;;;;;;;;;15.63;47.22;100073.22;4943417;28;1128;-43
2023/01/28 01:44:04;;;;;;;;;;;;;;;16.22;47.45;100081.56;4963948;28;1124;-41
2023/01/28 01:46:36;;;;;;;;;;;;;;;15.68;47.29;100081.41;4958037;28;1046;-43
2023/01/28 01:49:05;;;;;;;;;;;;;;;15.95;47.58;100088.38;4957889;28;1002;-42
2023/01/28 01:51:31;;;;;;;;;;;;;;;15.78;47.41;100077.78;4966367;28;1038;-41
2023/01/28 01:53:56;;;;;;;;;;;;;;;15.43;47.33;100084.31;4970114;28;1910;-46
2023/01/28 01:56:23;;;;;;;;;;;;;;;16.75;46.02;100089.81;4944660;29;1137;-42
2023/01/28 01:58:49;;;;;;;;;;;;;;;15.71;47.70;100086.31;4944608;28;1380;-46
2023/01/28 02:01:14;;;;;;;;;;;;;;;15.47;47.15;100090.84;4944401;29;1098;-43
2023/01/28 02:03:42;;;;;;;;;;;;;;;16.19;47.20;100090.38;4961255;28;1181;-43
2023/01/28 02:06:08;;;;;;;;;;;;;;;15.53;47.26;100092.47;4949282;28;1047;-47
2023/01/28 02:08:33;;;;;;;;;;;;;;;15.32;46.79;100097.22;4966447;28;1216;-44
2023/01/28 02:11:03;;;;;;;;;;;;;;;16.32;46.82;100100.69;4961380;28;1101;-47
2023/01/28 02:13:29;;;;;;;;;;;;;;;15.65;47.44;100098.41;4961476;28;1985;-45
2023/01/28 02:15:55;;;;;;;;;;;;;;;16.33;47.01;100113.28;4944537;29;1138;-43
2023/01/28 02:18:20;;;;;;;;;;;;;;;16.73;46.29;100100.28;4965077;28;1122;-42
2023/01/28 02:21:04;;;;;;;;;;;;;;;15.79;47.38;100106.00;4944017;29;1086;-46
2023/01/28 02:23:36;;;;;;;;;;;;;;;15.48;46.88;100120.69;4975920;28;1235;-44
2023/01/28 02:26:20;;;;;;;;;;;;;;;16.80;46.29;100113.66;4943963;29;1294;-45
2023/01/28 02:28:49;;;;;;;;;;;;;;;15.78;47.64;100129.03;4961592;28;1107;-45
2023/01/28 02:31:23;;;;;;;;;;;;;;;16.67;46.87;100126.16;4971627;28;1018;-44
2023/01/28 02:34:10;;;;;;;;;;;;;;;16.11;47.35;100126.66;4961437;28;1980;-44
2023/01/28 02:36:35;;;;;;;;;;;;;;;15.70;46.90;100124.97;4960925;28;1066;-42
2023/01/28 02:39:02;;;;;;;;;;;;;;;15.39;46.64;100125.97;4943772;29;1288;-43
2023/01/28 02:41:28;;;;;;;;;;;;;;;15.32;45.92;100141.06;4943870;29;1386;-43
2023/01/28 02:43:54;;;;;;;;;;;;;;;16.10;46.64;100133.25;4948569;29;951;-46
2023/01/28 02:49:17;;;;;;;;;;;;;;;15.39;47.27;100161.56;4960962;28;1117;-43
2023/01/28 02:51:49;;;;;;;;;;;;;;;15.87;47.12;100161.06;4961160;28;1141;-45
2023/01/28 02:54:28;;;;;;;;;;;;;;;15.33;47.23;100157.22;4978246;28;1915;-43
2023/01/28 02:57:14;;;;;;;;;;;;;;;16.56;46.33;100168.53;4951154;29;1113;-44
2023/01/28 03:00:02;;;;;;;;;;;;;;;15.51;47.46;100166.72;4968012;28;1556;-41
2023/01/28 03:02:32;;;;;;;;;;;;;;;16.45;46.59;100167.78;4938623;29;1172;-43
2023/01/28 03:05:04;;;;;;;;;;;;;;;15.95;47.48;100165.16;4960304;28;1161;-47
2023/01/28 03:07:31;;;;;;;;;;;;;;;16.20;47.32;100171.56;4966782;28;1069;-44
2023/01/28 03:09:57;;;;;;;;;;;;;;;17.25;45.30;100165.63;4943175;29;1074;-43
2023/01/28 03:37:32;;;;;;;;;;;;;;;15.80;47.41;100184.44;4974593;28;1226;-45
2023/01/28 03:40:19;;;;;;;;;;;;;;;15.52;46.55;100178.50;4961203;28;1588;-44
2023/01/28 03:42:44;;;;;;;;;;;;;;;15.82;46.97;100180.31;4928323;28;1313;-45
2023/01/28 03:45:31;;;;;;;;;;;;;;;15.87;47.78;100187.69;4954131;28;1181;-42
2023/01/28 03:47:58;;;;;;;;;;;;;;;15.57;47.16;100186.69;4980841;28;1052;-44
2023/01/28 03:50:24;;;;;;;;;;;;;;;15.43;46.45;100182.94;4949940;29;1174;-45
2023/01/28 03:53:11;;;;;;;;;;;;;;;16.47;46.67;100189.47;4947722;28;1906;-45
2023/01/28 03:55:48;;;;;;;;;;;;;;;15.63;47.33;100182.84;4986673;28;1187;-44
2023/01/28 03:58:14;;;;;;;;;;;;;;;15.34;46.77;100190.91;4959594;28;1042;-41
2023/01/28 04:00:42;;;;;;;;;;;;;;;16.37;46.62;100187.63;4942375;28;1173;-43
2023/01/28 04:03:15;;;;;;;;;;;;;;;15.67;47.63;100192.16;4942224;29;1146;-44
2023/01/28 04:05:58;;;;;;;;;;;;;;;16.33;46.72;100190.13;4942102;29;1331;-41
2023/01/28 04:08:26;;;;;;;;;;;;;;;16.62;46.71;100208.56;4961956;28;928;-43
2023/01/28 04:11:14;;;;;;;;;;;;;;;15.70;47.64;100207.22;4938100;28;1067;-44
2023/01/28 04:13:41;;;;;;;;;;;;;;;15.51;46.82;100207.00;4973682;28;1971;-44
2023/01/28 04:16:07;;;;;;;;;;;;;;;16.89;45.92;100201.75;4941387;28;2775;-46
2023/01/28 04:18:37;;;;;;;;;;;;;;;15.75;47.78;100212.66;4941740;28;1402;-43
2023/01/28 04:21:03;;;;;;;;;;;;;;;15.91;47.61;100218.94;4985494;28;1290;-44
2023/01/28 04:23:30;;;;;;;;;;;;;;;16.13;47.46;100229.50;4941323;28;1109;-50
2023/01/28 04:25:55;;;;;;;;;;;;;;;15.66;47.09;100225.31;4958249;28;978;-49
2023/01/28 04:28:22;;;;;;;;;;;;;;;16.34;46.89;100230.19;4958506;28;1112;-51
2023/01/28 04:30:48;;;;;;;;;;;;;;;16.05;47.61;100233.63;4942513;28;1019;-46
2023/01/28 04:33:32;;;;;;;;;;;;;;;16.66;46.54;100234.34;4960875;28;1910;-51
2023/01/28 04:36:09;;;;;;;;;;;;;;;17.26;45.46;100224.97;4942942;29;1011;-49
2023/01/28 04:38:55;;;;;;;;;;;;;;;16.08;47.15;100226.78;4958027;28;975;-47
2023/01/28 04:41:31;;;;;;;;;;;;;;;15.72;46.77;100229.66;4973015;28;1168;-47
2023/01/28 04:44:04;;;;;;;;;;;;;;;16.08;47.21;100238.56;4941114;29;1187;-44
2023/01/28 04:46:55;;;;;;;;;;;;;;;15.84;47.44;100226.63;4940334;28;2410;-46
2023/01/28 04:49:49;;;;;;;;;;;;;;;17.17;45.73;100224.00;4945225;28;1182;-49
2023/01/28 04:52:44;;;;;;;;;;;;;;;16.45;47.22;100219.13;4905865;29;1301;-47
2023/01/28 04:55:35;;;;;;;;;;;;;;;15.89;47.11;100210.97;4942230;28;1072;-51
2023/01/28 04:58:01;;;;;;;;;;;;;;;15.98;47.29;100213.13;4948548;28;1250;-49
2023/01/28 05:00:28;;;;;;;;;;;;;;;16.05;47.37;100213.63;4978108;28;1403;-49
2023/01/28 05:02:53;;;;;;;;;;;;;;;15.62;47.44;100213.28;4959654;28;1104;-48
2023/01/28 05:05:19;;;;;;;;;;;;;;;16.75;46.09;100223.53;4958071;28;1172;-50
2023/01/28 05:08:11;;;;;;;;;;;;;;;15.80;47.17;100215.41;4951162;28;1409;-48
2023/01/28 05:10:36;;;;;;;;;;;;;;;17.07;46.06;100220.25;4946595;28;1158;-51
2023/01/28 05:13:03;;;;;;;;;;;;;;;16.39;46.88;100216.41;4977269;28;1910;-51
2023/01/28 05:15:29;;;;;;;;;;;;;;;15.94;46.80;100220.28;4974936;28;1926;-50
2023/01/28 05:17:56;;;;;;;;;;;;;;;17.05;45.82;100221.63;4962050;28;1436;-52
2023/01/28 05:20:22;;;;;;;;;;;;;;;16.10;47.03;100234.72;4980656;28;1328;-51
2023/01/28 05:22:48;;;;;;;;;;;;;;;16.53;47.08;100224.00;4958666;28;1275;-55
2023/01/28 05:25:23;;;;;;;;;;;;;;;16.30;47.21;100239.25;4960399;28;1417;-50
2023/01/28 05:27:50;;;;;;;;;;;;;;;15.90;47.14;100244.69;4957492;29;1279;-50
2023/01/28 05:30:16;;;;;;;;;;;;;;;16.77;46.67;100249.59;4957439;28;1180;-53
2023/01/28 05:32:41;;;;;;;;;;;;;;;16.24;47.21;100260.41;4963227;28;1259;-55
2023/01/28 05:35:08;;;;;;;;;;;;;;;15.80;46.73;100264.75;4995663;28;1911;-51
2023/01/28 05:37:34;;;;;;;;;;;;;;;15.65;46.45;100262.84;4957281;29;1103;-54
2023/01/28 05:40:00;;;;;;;;;;;;;;;16.74;46.39;100258.41;4956953;28;1227;-53
2023/01/28 05:42:25;;;;;;;;;;;;;;;15.85;47.19;100250.19;4967703;28;1494;-51
2023/01/28 05:45:00;;;;;;;;;;;;;;;17.61;44.89;100262.25;4977595;28;1979;-54
2023/01/28 05:47:44;;;;;;;;;;;;;;;16.69;46.53;100272.19;4971048;28;1006;-55
2023/01/28 05:50:25;;;;;;;;;;;;;;;16.05;47.06;100271.22;4957764;29;1160;-51
2023/01/28 05:53:10;;;;;;;;;;;;;;;16.55;46.73;100279.41;4968109;28;1972;-52
2023/01/28 05:55:41;;;;;;;;;;;;;;;15.89;47.30;100273.22;4963027;28;1423;-50
2023/01/28 05:58:07;;;;;;;;;;;;;;;15.60;46.75;100275.75;4963115;28;1105;-49
2023/01/28 06:00:33;;;;;;;;;;;;;;;16.46;46.84;100292.13;4961446;28;1129;-51
2023/01/28 06:03:00;;;;;;;;;;;;;;;15.78;47.20;100288.03;4969825;28;994;-50
2023/01/28 06:05:26;;;;;;;;;;;;;;;15.52;46.98;100296.34;4979891;28;1029;-50
2023/01/28 06:07:52;;;;;;;;;;;;;;;16.74;46.06;100309.75;4954839;29;1306;-49
2023/01/28 06:10:18;;;;;;;;;;;;;;;16.12;47.27;100310.13;4956450;28;1158;-50
2023/01/28 06:12:45;;;;;;;;;;;;;;;16.75;46.61;100312.22;4952481;28;1182;-51
2023/01/28 06:15:36;;;;;;;;;;;;;;;17.06;45.57;100317.47;4953974;28;1797;-52
2023/01/28 06:18:37;;;;;;;;;;;;;;;16.03;47.50;100307.16;4934305;29;1278;-54
2023/01/28 06:21:03;;;;;;;;;;;;;;;17.01;45.54;100319.47;4948437;29;1152;-49
2023/01/28 06:23:29;;;;;;;;;;;;;;;16.41;46.85;100318.47;4992692;28;1153;-50
2023/01/28 06:25:54;;;;;;;;;;;;;;;16.03;47.82;100309.91;4968419;28;1179;-52
2023/01/28 06:28:20;;;;;;;;;;;;;;;15.83;47.90;100320.94;4976054;28;1093;-53
2023/01/28 06:30:52;;;;;;;;;;;;;;;15.60;48.31;100320.44;4969489;28;1141;-50
2023/01/28 06:33:18;;;;;;;;;;;;;;;15.41;48.72;100311.97;4972918;28;1969;-52
2023/01/28 06:35:43;;;;;;;;;;;;;;;15.28;48.86;100320.75;4960346;28;1074;-50
2023/01/28 06:38:09;;;;;;;;;;;;;;;15.99;47.38;100317.06;4973422;28;1121;-52
2023/01/28 06:40:34;;;;;;;;;;;;;;;17.32;44.20;100336.50;4971992;28;1093;-51
2023/01/28 06:43:00;;;;;;;;;;;;;;;16.35;46.00;100327.81;4966565;28;1129;-49
2023/01/28 06:45:25;;;;;;;;;;;;;;;15.78;47.73;100323.66;4968014;28;2042;-50
2023/01/28 06:47:51;;;;;;;;;;;;;;;15.54;48.13;100332.50;4972853;28;1081;-51
2023/01/28 06:50:16;;;;;;;;;;;;;;;15.33;48.50;100335.28;4971325;28;1087;-53
2023/01/28 06:52:42;;;;;;;;;;;;;;;16.11;46.94;100335.09;4963096;28;1276;-52
2023/01/28 06:55:07;;;;;;;;;;;;;;;17.34;43.77;100339.78;4970522;28;1907;-47
2023/01/28 06:57:33;;;;;;;;;;;;;;;16.56;45.70;100344.19;4965933;28;1086;-49
2023/01/28 06:59:58;;;;;;;;;;;;;;;15.94;46.91;100339.00;4969185;28;1195;-51
2023/01/28 07:02:24;;;;;;;;;;;;;;;15.62;47.58;100337.41;4963525;28;1034;-49
2023/01/28 07:04:49;;;;;;;;;;;;;;;15.33;48.25;100332.56;4979089;28;1053;-48
2023/01/28 07:07:15;;;;;;;;;;;;;;;15.82;47.29;100338.50;4966723;28;1223;-47
2023/01/28 07:09:40;;;;;;;;;;;;;;;17.24;43.71;100337.13;4968553;28;869;-55
2023/01/28 07:12:06;;;;;;;;;;;;;;;17.09;43.96;100332.56;4976122;28;971;-49
2023/01/28 07:14:31;;;;;;;;;;;;;;;16.15;46.11;100338.94;4978693;28;1894;-50
2023/01/28 07:16:57;;;;;;;;;;;;;;;15.77;47.14;100335.72;4966076;28;1876;-52
2023/01/28 07:19:22;;;;;;;;;;;;;;;15.53;47.73;100350.06;4978900;28;1233;-51
2023/01/28 07:21:47;;;;;;;;;;;;;;;16.16;46.60;100370.72;4975732;28;1053;-48
2023/01/28 07:24:13;;;;;;;;;;;;;;;17.47;43.45;100375.94;4969072;28;1089;-46
2023/01/28 07:26:38;;;;;;;;;;;;;;;16.55;45.19;100394.69;4978524;28;1037;-50
2023/01/28 07:29:04;;;;;;;;;;;;;;;16.00;46.49;100389.97;4969288;28;1121;-50
2023/01/28 07:31:29;;;;;;;;;;;;;;;15.65;47.42;100396.34;4974696;28;1007;-51
2023/01/28 07:33:55;;;;;;;;;;;;;;;15.42;48.13;100394.97;4968998;28;1963;-46
2023/01/28 07:36:20;;;;;;;;;;;;;;;16.33;45.90;100389.59;4974896;28;1006;-49
2023/01/28 07:38:45;;;;;;;;;;;;;;;17.42;43.32;100385.88;4978582;28;1006;-45
2023/01/28 07:41:11;;;;;;;;;;;;;;;16.31;45.79;100398.09;4975847;28;1026;-51
2023/01/28 07:43:36;;;;;;;;;;;;;;;15.78;47.12;100394.94;4968454;28;1066;-51
2023/01/28 07:46:02;;;;;;;;;;;;;;;15.52;47.54;100397.72;4971886;28;1865;-50
2023/01/28 07:48:27;;;;;;;;;;;;;;;15.43;47.89;100394.72;4968894;28;1246;-49
2023/01/28 07:50:52;;;;;;;;;;;;;;;17.06;44.09;100393.59;4972065;28;1523;-54
2023/01/28 07:53:19;;;;;;;;;;;;;;;17.02;44.20;100398.81;4959740;28;1915;-53
2023/01/28 07:55:44;;;;;;;;;;;;;;;16.07;46.26;100401.50;4974274;28;998;-54
2023/01/28 07:58:10;;;;;;;;;;;;;;;15.68;47.13;100399.38;4978090;28;894;-53
2023/01/28 08:00:35;;;;;;;;;;;;;;;15.45;47.87;100397.19;4965189;28;1133;-47
2023/01/28 08:03:03;;;;;;;;;;;;;;;16.95;44.21;100398.31;4952298;29;1157;-48
2023/01/28 08:05:46;;;;;;;;;;;;;;;17.03;44.12;100405.16;4971729;28;1049;-50
2023/01/28 08:08:12;;;;;;;;;;;;;;;16.07;46.26;100403.41;4941838;29;1164;-50
2023/01/28 08:10:38;;;;;;;;;;;;;;;15.70;47.04;100408.13;4963108;28;868;-49
2023/01/28 08:13:03;;;;;;;;;;;;;;;15.44;47.70;100403.75;4959510;28;1910;-51
2023/01/28 08:15:29;;;;;;;;;;;;;;;16.50;45.27;100408.47;4967437;28;1780;-48
2023/01/28 08:17:55;;;;;;;;;;;;;;;17.60;42.75;100425.56;4961375;28;1149;-55
2023/01/28 08:20:21;;;;;;;;;;;;;;;16.42;45.40;100424.41;4977319;28;1692;-51
2023/01/28 08:22:46;;;;;;;;;;;;;;;15.91;46.46;100430.88;4964684;28;2012;-48
2023/01/28 08:25:12;;;;;;;;;;;;;;;15.63;47.29;100439.66;4975641;28;1054;-48
2023/01/28 08:27:37;;;;;;;;;;;;;;;15.42;47.49;100433.34;4977945;28;1069;-46
2023/01/28 08:30:03;;;;;;;;;;;;;;;15.48;47.62;100448.69;4977496;28;1143;-51
2023/01/28 08:32:29;;;;;;;;;;;;;;;17.09;43.90;100450.69;4978122;28;1002;-50
2023/01/28 08:34:55;;;;;;;;;;;;;;;17.39;42.86;100452.41;4975598;28;1919;-49
2023/01/28 08:37:20;;;;;;;;;;;;;;;16.30;45.55;100454.09;4968829;28;1137;-53
2023/01/28 08:39:46;;;;;;;;;;;;;;;15.84;46.76;100473.38;4977660;28;1049;-50
2023/01/28 08:42:11;;;;;;;;;;;;;;;15.55;47.42;100444.56;4978188;28;1049;-51
2023/01/28 08:44:36;;;;;;;;;;;;;;;15.39;47.68;100462.13;4977427;28;1101;-47
2023/01/28 08:47:02;;;;;;;;;;;;;;;16.51;45.17;100454.00;4977501;28;1002;-49
2023/01/28 08:49:27;;;;;;;;;;;;;;;17.39;42.99;100446.06;4961435;28;1094;-49
2023/01/28 08:51:54;;;;;;;;;;;;;;;16.27;45.47;100453.81;4968733;28;1010;-51
2023/01/28 08:54:19;;;;;;;;;;;;;;;15.81;46.57;100446.50;4977621;28;1914;-48
2023/01/28 08:56:47;;;;;;;;;;;;;;;15.50;47.25;100447.34;4977591;28;1029;-51
2023/01/28 08:59:12;;;;;;;;;;;;;;;15.26;48.00;100457.19;4992323;28;1112;-50
2023/01/28 09:01:38;;;;;;;;;;;;;;;16.58;45.04;100460.84;4966416;28;1244;-49
2023/01/28 09:04:03;;;;;;;;;;;;;;;17.55;42.31;100461.34;4971244;28;1050;-51
2023/01/28 09:06:29;;;;;;;;;;;;;;;16.38;44.99;100444.44;4958093;29;1077;-52
2023/01/28 09:08:57;;;;;;;;;;;;;;;15.83;46.60;100450.63;4973342;28;1050;-48
2023/01/28 09:11:23;;;;;;;;;;;;;;;15.52;47.05;100449.81;4968534;28;1124;-51
2023/01/28 09:13:48;;;;;;;;;;;;;;;15.57;47.06;100444.31;4976988;28;1910;-49
2023/01/28 09:16:14;;;;;;;;;;;;;;;17.21;43.26;100450.38;4967023;28;1196;-47
2023/01/28 09:18:39;;;;;;;;;;;;;;;16.68;44.37;100459.16;4974710;28;1074;-49
2023/01/28 09:21:05;;;;;;;;;;;;;;;15.96;46.10;100473.91;4966910;28;1224;-52
2023/01/28 09:23:32;;;;;;;;;;;;;;;15.63;46.87;100473.38;4974687;28;1030;-49
2023/01/28 09:25:58;;;;;;;;;;;;;;;16.13;46.05;100461.81;4966819;28;1121;-49
2023/01/28 09:28:24;;;;;;;;;;;;;;;17.44;42.78;100473.53;4974567;28;1062;-49
2023/01/28 09:30:49;;;;;;;;;;;;;;;16.56;44.46;100473.19;4967113;28;1110;-46
2023/01/28 09:33:15;;;;;;;;;;;;;;;15.94;46.17;100472.56;4961392;28;1910;-48
2023/01/28 09:35:40;;;;;;;;;;;;;;;15.57;47.12;100474.44;4966888;28;1177;-48
2023/01/28 09:38:06;;;;;;;;;;;;;;;15.39;47.34;100484.88;4974977;28;1169;-49
2023/01/28 09:40:32;;;;;;;;;;;;;;;16.77;44.32;100484.91;4946946;29;1271;-51
2023/01/28 09:42:57;;;;;;;;;;;;;;;17.25;43.17;100484.38;4970572;28;1046;-51
2023/01/28 09:45:29;;;;;;;;;;;;;;;16.18;45.36;100479.06;4969960;28;1054;-52
2023/01/28 09:47:55;;;;;;;;;;;;;;;15.73;46.58;100489.00;4967146;28;1038;-53
2023/01/28 09:50:27;;;;;;;;;;;;;;;15.48;47.03;100487.88;4979060;28;1165;-53
2023/01/28 09:52:53;;;;;;;;;;;;;;;16.80;44.27;100494.50;4986601;28;1096;-52
2023/01/28 09:55:22;;;;;;;;;;;;;;;17.14;43.34;100480.06;4983847;28;1910;-52
2023/01/28 09:57:52;;;;;;;;;;;;;;;16.16;45.40;100478.53;4991244;28;1124;-52
2023/01/28 10:00:18;;;;;;;;;;;;;;;15.76;46.61;100499.41;4976948;28;1077;-51
2023/01/28 10:02:50;;;;;;;;;;;;;;;15.46;47.33;100487.34;4964267;28;1129;-54
2023/01/28 10:05:15;;;;;;;;;;;;;;;16.83;44.04;100477.47;4976260;28;1057;-53
2023/01/28 10:08:00;;;;;;;;;;;;;;;17.57;42.34;100475.63;4977082;28;1049;-53
2023/01/28 10:10:38;;;;;;;;;;;;;;;16.28;45.32;100464.50;4963414;28;1125;-53
2023/01/28 10:13:10;;;;;;;;;;;;;;;15.80;46.34;100466.81;4984184;28;1906;-50
2023/01/28 10:15:36;;;;;;;;;;;;;;;15.52;46.81;100461.56;4981090;28;1401;-49
2023/01/28 10:18:03;;;;;;;;;;;;;;;16.45;44.95;100466.09;4980523;28;1070;-51
2023/01/28 10:20:32;;;;;;;;;;;;;;;17.59;42.16;100456.91;4995132;28;1060;-49
2023/01/28 10:23:00;;;;;;;;;;;;;;;16.50;44.77;100461.41;4968404;28;900;-51
2023/01/28 10:25:27;;;;;;;;;;;;;;;15.95;46.05;100464.06;4979736;28;1113;-51
2023/01/28 10:27:52;;;;;;;;;;;;;;;15.64;46.74;100453.09;4994988;28;1056;-50
2023/01/28 10:30:19;;;;;;;;;;;;;;;15.41;47.30;100459.94;4967326;28;1217;-49
2023/01/28 10:33:03;;;;;;;;;;;;;;;15.69;46.84;100453.06;4980186;28;1049;-48
2023/01/28 10:35:30;;;;;;;;;;;;;;;17.33;43.04;100464.53;4957684;28;867;-46
2023/01/28 10:37:58;;;;;;;;;;;;;;;16.94;43.52;100457.09;4958801;28;1129;-51
2023/01/28 10:40:23;;;;;;;;;;;;;;;16.09;45.78;100456.06;4980039;28;1070;-48
2023/01/28 10:42:49;;;;;;;;;;;;;;;15.68;46.68;100459.66;4977656;28;1140;-51
2023/01/28 10:45:14;;;;;;;;;;;;;;;15.53;46.81;100459.69;4969335;28;1062;-49
2023/01/28 10:47:43;;;;;;;;;;;;;;;15.67;46.62;100462.66;4977451;28;1042;-48
2023/01/28 10:50:14;;;;;;;;;;;;;;;17.22;43.14;100479.47;4969877;28;1058;-47
2023/01/28 10:52:49;;;;;;;;;;;;;;;16.75;43.85;100482.44;4991156;28;1065;-52
2023/01/28 10:55:15;;;;;;;;;;;;;;;15.97;45.72;100472.81;4971640;28;1979;-51
2023/01/28 10:57:40;;;;;;;;;;;;;;;15.66;46.64;100485.69;4966481;28;1129;-47
2023/01/28 11:00:16;;;;;;;;;;;;;;;15.59;46.91;100485.97;4994717;28;1068;-44
2023/01/28 11:02:42;;;;;;;;;;;;;;;16.28;45.62;100483.72;4994494;28;1057;-48
2023/01/28 11:05:17;;;;;;;;;;;;;;;17.54;42.75;100475.38;4982314;28;1168;-45
2023/01/28 11:07:43;;;;;;;;;;;;;;;16.53;45.17;100487.47;4955716;28;1102;-46
2023/01/28 11:10:39;;;;;;;;;;;;;;;15.93;46.34;100484.63;4966670;28;1149;-48
2023/01/28 11:13:05;;;;;;;;;;;;;;;15.66;47.09;100489.25;4971160;28;1898;-49
2023/01/28 11:15:30;;;;;;;;;;;;;;;15.42;47.54;100488.97;4979604;28;1021;-49
2023/01/28 11:17:57;;;;;;;;;;;;;;;15.99;46.35;100487.09;4983471;28;1125;-51
2023/01/28 11:20:24;;;;;;;;;;;;;;;17.36;43.07;100485.97;4955310;29;1213;-52
2023/01/28 11:22:49;;;;;;;;;;;;;;;17.10;43.55;100499.88;4970551;28;1065;-52
2023/01/28 11:25:15;;;;;;;;;;;;;;;16.21;45.67;100500.47;4993417;28;1028;-52
2023/01/28 11:27:40;;;;;;;;;;;;;;;15.75;46.72;100492.25;4978699;28;1057;-50
2023/01/28 11:30:15;;;;;;;;;;;;;;;15.52;47.27;100499.13;4989117;28;1520;-52
2023/01/28 11:32:40;;;;;;;;;;;;;;;16.80;44.39;100506.31;4986922;28;1121;-45
2023/01/28 11:35:06;;;;;;;;;;;;;;;17.02;43.79;100507.88;4978654;28;1914;-46
2023/01/28 11:37:32;;;;;;;;;;;;;;;16.12;45.73;100495.81;4966721;28;1195;-52
2023/01/28 11:40:13;;;;;;;;;;;;;;;15.71;46.77;100491.16;4960856;28;1389;-53
2023/01/28 11:42:39;;;;;;;;;;;;;;;15.43;47.56;100490.63;4979069;28;1054;-52
2023/01/28 11:45:07;;;;;;;;;;;;;;;15.94;46.59;100489.81;4993515;28;1068;-49
2023/01/28 11:47:45;;;;;;;;;;;;;;;17.32;43.10;100490.41;4981998;28;1048;-50
2023/01/28 11:50:15;;;;;;;;;;;;;;;16.77;43.97;100498.63;4978726;28;1045;-48
2023/01/28 11:52:43;;;;;;;;;;;;;;;16.01;45.99;100490.34;4978514;28;1013;-52
2023/01/28 11:55:27;;;;;;;;;;;;;;;15.68;46.87;100492.56;4968367;28;1926;-50
2023/01/28 11:57:59;;;;;;;;;;;;;;;15.45;47.33;100495.84;4965865;28;1153;-49
2023/01/28 12:00:28;;;;;;;;;;;;;;;17.08;43.63;100507.59;4965535;28;896;-46
2023/01/28 12:03:20;;;;;;;;;;;;;;;16.82;44.11;100508.78;4993522;28;1040;-50
2023/01/28 12:06:09;;;;;;;;;;;;;;;15.89;46.07;100509.84;4976036;28;1274;-49
2023/01/28 12:08:37;;;;;;;;;;;;;;;15.57;46.98;100524.63;4958650;28;1262;-47
2023/01/28 12:11:02;;;;;;;;;;;;;;;15.88;46.51;100516.44;4966488;28;1197;-46
2023/01/28 12:13:44;;;;;;;;;;;;;;;17.33;42.96;100519.50;4977346;28;1961;-46
2023/01/28 12:16:10;;;;;;;;;;;;;;;16.52;44.75;100510.53;4969041;28;1137;-46
2023/01/28 12:18:54;;;;;;;;;;;;;;;15.93;46.19;100525.75;4964923;28;1185;-53
2023/01/28 12:21:31;;;;;;;;;;;;;;;15.54;47.23;100516.94;4965726;28;1133;-49
2023/01/28 12:24:09;;;;;;;;;;;;;;;15.31;47.63;100531.16;4965804;28;879;-47
2023/01/28 12:26:53;;;;;;;;;;;;;;;16.92;43.86;100525.25;4975678;28;1172;-46
2023/01/28 12:29:33;;;;;;;;;;;;;;;17.39;42.51;100526.63;4969942;28;1065;-46
2023/01/28 12:32:18;;;;;;;;;;;;;;;16.25;45.28;100528.16;4952587;28;1155;-47
2023/01/28 12:34:49;;;;;;;;;;;;;;;15.76;46.47;100532.28;4965049;28;1907;-45
2023/01/28 12:37:33;;;;;;;;;;;;;;;15.51;47.03;100536.66;4977587;28;1108;-47
2023/01/28 12:40:05;;;;;;;;;;;;;;;15.91;46.36;100531.50;4977657;28;1021;-49
2023/01/28 12:42:36;;;;;;;;;;;;;;;17.36;42.80;100523.63;4977708;28;1022;-48
2023/01/28 12:45:09;;;;;;;;;;;;;;;16.77;44.08;100526.94;4965669;28;1130;-44
2023/01/28 12:47:35;;;;;;;;;;;;;;;16.00;45.92;100526.28;4983322;28;1088;-47
2023/01/28 12:50:21;;;;;;;;;;;;;;;15.67;46.79;100550.38;4941497;29;1089;-48
2023/01/28 12:52:48;;;;;;;;;;;;;;;15.42;47.23;100543.78;4958342;28;1284;-49
2023/01/28 12:55:18;;;;;;;;;;;;;;;15.84;46.40;100550.16;4984245;28;1975;-50
2023/01/28 12:57:43;;;;;;;;;;;;;;;17.31;42.78;100546.47;4988169;28;1025;-48
2023/01/28 13:00:14;;;;;;;;;;;;;;;16.64;44.41;100549.47;4969532;28;914;-46
2023/01/28 13:02:41;;;;;;;;;;;;;;;15.90;46.02;100549.06;4977291;28;1160;-51
2023/01/28 13:05:13;;;;;;;;;;;;;;;15.57;46.78;100562.16;4992983;28;1104;-52
2023/01/28 13:07:47;;;;;;;;;;;;;;;15.37;47.60;100563.75;4967724;28;1078;-50
2023/01/28 13:10:21;;;;;;;;;;;;;;;16.73;44.29;100564.28;4977864;28;1065;-50
2023/01/28 13:12:46;;;;;;;;;;;;;;;16.97;43.45;100565.59;4992490;28;850;-48
2023/01/28 13:15:13;;;;;;;;;;;;;;;16.07;45.55;100579.78;4979575;28;1918;-50
2023/01/28 13:17:38;;;;;;;;;;;;;;;15.67;46.59;100583.25;4968737;28;1180;-49
2023/01/28 13:20:13;;;;;;;;;;;;;;;15.43;47.37;100582.94;4960175;28;1153;-50
2023/01/28 13:22:39;;;;;;;;;;;;;;;15.91;46.18;100589.09;4977334;28;1045;-48
2023/01/28 13:25:23;;;;;;;;;;;;;;;17.29;42.97;100589.88;4977091;28;1091;-50
2023/01/28 13:27:58;;;;;;;;;;;;;;;16.63;44.19;100605.47;4965007;28;1207;-50